• Join FlightAware (Why Join?)
  • Login
  • US Flag 
09:48AM EDT


 

Airport Tracker/Info


-or-


 

Live Flight TrackerFlight Track Log ✈ CTL17 ✈ 27-Jun-2013 ✈ KBKL - KPTK

Flight Track Log - Related Links

Times and Time Zones

All times are in EDT time to prevent confusion due to time zone crossing. See the CTL17 flight status page for this flight to view local times or setup timezone preferences in your user account.

Time Position Orientation Groundspeed Altitude Reporting Facility
EDT Latitude Longitude Course Direction KTS MPH feet Rate Location/Type
07:23PM 41.5708 -81.6989 336° Northwest 143 165 1,900  Level Cleveland Center
07:24PM 41.6083 -81.7161 341° North 148 170 2,600 360 Climbing Cleveland Center
07:26PM 41.6789 -81.7453 343° North 165 190 3,000 180 Climbing Cleveland Center
07:27PM 41.7308 -81.7739 338° Northwest 159 183 3,300 60 Climbing Cleveland Center
07:29PM 41.7889 -81.8031 342° North 150 173 3,300  Level Cleveland Center
07:30PM 41.8261 -81.8286 333° Northwest 150 173 3,400  Climbing Cleveland Center
07:31PM 41.8525 -81.8822 303° West 144 166 3,300 -60 Descending Cleveland Center
07:32PM 41.8747 -81.9356 299° West 157 181 3,300  Level Cleveland Center
07:33PM 41.8992 -81.9892 302° West 162 186 3,300  Level Cleveland Center
07:34PM 41.9214 -82.0400 300° West 167 192 3,300  Level Cleveland Center
07:35PM 41.9436 -82.0933 299° West 167 192 3,300  Level Cleveland Center
07:36PM 41.9683 -82.1358 308° West 162 186 3,300  Level Cleveland Center
07:37PM 41.9883 -82.1894 297° West 162 186 3,300  Level Cleveland Center
07:38PM 42.0083 -82.2375 299° West 162 186 3,400  Climbing Cleveland Center
07:38PM 42.0225 -82.2769 296° West 154 177 3,300  Descending Cleveland Center
07:39PM 42.0386 -82.3081 305° West 154 177 3,400  Climbing Cleveland Center
07:40PM 42.0486 -82.3392 293° West 162 186 3,300 -240 Descending Cleveland Center
07:41PM 42.0728 -82.3931 301° West 162 186 3,000 -120 Descending Cleveland Center
07:42PM 42.0908 -82.4439 296° West 162 186 3,100  Climbing Cleveland Center
07:43PM 42.1086 -82.4975 294° West 162 186 3,000 -60 Descending Cleveland Center
07:44PM 42.1222 -82.5539 288° West 162 186 3,000  Level Cleveland Center
07:45PM 42.1358 -82.6133 287° West 157 181 3,000  Level Cleveland Center
07:46PM 42.1494 -82.6725 287° West 157 181 3,000  Level Cleveland Center
07:47PM 42.1778 -82.7211 308° West 157 181 3,000  Level Cleveland Center
07:48PM 42.2081 -82.7697 310° West 163 188 3,100  Climbing Cleveland Center
07:49PM 42.2567 -82.8444 311° West 172 198 3,100  Level Cleveland Center
07:50PM 42.2911 -82.8847 319° Northwest 178 205 3,100  Level Cleveland Center
07:51PM 42.3256 -82.9394 310° West 179 206 3,100  Level Cleveland Center
07:52PM 42.3600 -82.9886 313° West 181 208 3,100  Level Cleveland Center
07:53PM 42.3986 -83.0406 315° West 180 207 3,200  Climbing Cleveland Center
07:54PM 42.4308 -83.0897 312° West 185 213 3,200 -60 Level Cleveland Center
07:55PM 42.4611 -83.1389 310° West 181 208 3,100  Descending Cleveland Center
07:56PM 42.4806 -83.1986 294° West 179 206 3,200  Climbing Cleveland Center
07:57PM 42.5019 -83.2617 295° West 179 206 3,200 -120 Level Cleveland Center
07:58PM 42.5233 -83.3272 294° West 183 211 3,000 -120 Descending Cleveland Center
07:59PM 42.5447 -83.3875 296° West 179 206 3,000  Level Cleveland Center
08:00PM 42.5664 -83.4475 296° West 175 201 3,000  Level Cleveland Center
08:01PM 42.5728 -83.5156 277° West 169 194 3,100  Climbing Cleveland Center
08:02PM 42.5733 -83.5747 271° West 173 199 3,000 -60 Descending Cleveland Center
08:04PM 42.6155 -83.5044 51° Northeast  Level Estimated
08:04PM 42.6294 -83.6678 51° Northeast 164 189 3,000  Level Cleveland Center
08:05PM 42.6536 -83.6239 53° Northeast 158 182 3,200 -180 Climbing Cleveland Center
08:06PM 42.6614 -83.5647 80° East 157 181 2,700 -540 Descending Cleveland Center
08:07PM 42.6625 -83.5142 88° East 111 128 2,200 -540 Descending Cleveland Center